createdAt,value
2022-08-14T00:02:22.859Z,83.00
2022-08-14T00:04:52.039Z,83.30
2022-08-14T00:07:19.781Z,83.60
2022-08-14T00:10:02.010Z,84.00
2022-08-14T00:12:39.591Z,84.00
2022-08-14T00:15:21.919Z,84.00
2022-08-14T00:17:53.099Z,84.40
2022-08-14T00:20:30.806Z,84.20
2022-08-14T00:23:12.333Z,84.70
2022-08-14T00:25:53.828Z,85.00
2022-08-14T00:28:29.165Z,84.90
2022-08-14T00:31:00.781Z,85.60
2022-08-14T00:33:50.585Z,85.70
2022-08-14T00:36:36.388Z,86.10
2022-08-14T00:39:06.484Z,87.70
2022-08-14T00:41:38.834Z,86.00
2022-08-14T00:44:08.110Z,86.30
2022-08-14T00:46:38.073Z,86.90
2022-08-14T00:49:11.411Z,87.20
2022-08-14T00:51:44.150Z,87.20
2022-08-14T00:54:21.529Z,87.80
2022-08-14T00:56:55.172Z,88.20
2022-08-14T00:59:28.696Z,88.40
2022-08-14T01:01:59.718Z,88.70
2022-08-14T01:04:38.019Z,89.20
2022-08-14T01:07:20.639Z,89.60
2022-08-14T01:09:54.190Z,90.00
2022-08-14T01:12:40.480Z,90.20
2022-08-14T01:15:09.805Z,90.30
2022-08-14T01:18:01.433Z,90.40
2022-08-14T01:20:49.443Z,90.60
2022-08-14T01:23:19.016Z,90.80
2022-08-14T01:25:51.890Z,91.00
2022-08-14T01:28:46.785Z,90.80
2022-08-14T01:31:16.289Z,90.50
2022-08-14T01:33:59.552Z,90.20
2022-08-14T01:36:41.700Z,90.10
2022-08-14T01:39:13.732Z,90.00
2022-08-14T01:41:44.336Z,90.00
2022-08-14T01:44:32.458Z,89.80
2022-08-14T01:47:16.441Z,89.80
2022-08-14T01:50:01.355Z,89.50
2022-08-14T01:52:58.649Z,89.30
2022-08-14T01:55:23.357Z,89.20
2022-08-14T01:58:18.955Z,89.00
2022-08-14T02:00:39.602Z,89.70
2022-08-14T02:03:07.730Z,89.40
2022-08-14T02:05:38.668Z,89.80
2022-08-14T02:08:09.625Z,90.10
2022-08-14T02:10:46.776Z,89.50
2022-08-14T02:13:19.716Z,89.70
2022-08-14T02:15:48.777Z,89.90
2022-08-14T02:18:18.520Z,90.10
2022-08-14T02:20:48.760Z,90.30
2022-08-14T02:23:28.990Z,90.50
2022-08-14T02:26:24.399Z,90.10
2022-08-14T02:28:58.381Z,90.10
2022-08-14T02:31:42.175Z,90.20
2022-08-14T02:34:14.532Z,90.40
2022-08-14T02:37:03.977Z,90.30
2022-08-14T02:39:38.313Z,90.40
2022-08-14T02:42:13.041Z,90.50
2022-08-14T02:44:48.846Z,90.60
2022-08-14T02:47:20.822Z,90.70
2022-08-14T02:49:50.640Z,90.70
2022-08-14T02:52:55.494Z,90.80
2022-08-14T02:55:11.329Z,90.80
2022-08-14T02:57:41.087Z,90.70
2022-08-14T03:00:11.989Z,90.80
2022-08-14T03:02:56.459Z,90.80
2022-08-14T03:05:32.938Z,90.90
2022-08-14T03:08:09.398Z,90.90
2022-08-14T03:10:42.082Z,91.00
2022-08-14T03:13:19.274Z,91.10
2022-08-14T03:15:55.528Z,91.10
2022-08-14T03:18:31.403Z,91.30
2022-08-14T03:21:02.758Z,91.30
2022-08-14T03:23:37.734Z,91.40
2022-08-14T03:26:12.977Z,91.70
2022-08-14T03:28:51.723Z,91.50
2022-08-14T03:31:26.093Z,92.10
2022-08-14T03:33:56.782Z,92.60
2022-08-14T03:37:37.511Z,92.70
2022-08-14T03:39:21.667Z,93.10
2022-08-14T03:41:53.492Z,93.20
2022-08-14T03:45:25.297Z,93.50
2022-08-14T03:47:11.688Z,93.30
2022-08-14T03:49:42.392Z,93.00
2022-08-14T03:52:28.227Z,92.80
2022-08-14T03:54:59.273Z,92.70
2022-08-14T03:57:32.308Z,92.90
2022-08-14T04:00:03.699Z,94.20
2022-08-14T04:02:47.230Z,93.80
2022-08-14T04:05:16.811Z,93.60
2022-08-14T04:07:49.633Z,93.90
2022-08-14T04:10:32.673Z,94.50
2022-08-14T04:13:06.181Z,95.00
2022-08-14T04:15:56.186Z,94.90
2022-08-14T04:18:22.390Z,94.90
2022-08-14T04:20:54.171Z,95.10
2022-08-14T04:23:29.814Z,95.10
2022-08-14T04:26:08.176Z,95.10
2022-08-14T04:29:01.975Z,95.20
2022-08-14T04:32:58.073Z,95.50
2022-08-14T04:34:21.009Z,95.80
2022-08-14T04:37:10.853Z,95.80
2022-08-14T04:39:57.877Z,95.40
2022-08-14T04:42:47.188Z,95.70
2022-08-14T04:45:23.301Z,96.40
2022-08-14T04:48:10.483Z,95.30
2022-08-14T04:50:49.073Z,95.30
2022-08-14T04:53:26.256Z,95.40
2022-08-14T04:56:05.881Z,95.60
2022-08-14T04:58:39.640Z,96.00
2022-08-14T05:01:12.883Z,96.10
2022-08-14T05:03:47.816Z,96.40
2022-08-14T05:06:37.530Z,96.40
2022-08-14T05:09:06.414Z,96.60
2022-08-14T05:11:36.769Z,96.30
2022-08-14T05:14:17.109Z,96.00
2022-08-14T05:16:53.268Z,95.80
2022-08-14T05:19:29.175Z,95.50
2022-08-14T05:22:16.917Z,95.50
2022-08-14T05:24:49.631Z,95.50
2022-08-14T05:27:23.066Z,95.30
2022-08-14T05:29:53.726Z,95.30
2022-08-14T05:32:27.734Z,95.20
2022-08-14T05:34:58.521Z,95.20
2022-08-14T05:37:28.057Z,95.20
2022-08-14T05:39:56.060Z,95.20
2022-08-14T05:42:29.264Z,95.30
2022-08-14T05:45:00.000Z,95.40
2022-08-14T05:47:29.163Z,95.70
2022-08-14T05:50:02.289Z,95.30
2022-08-14T05:52:38.750Z,95.50
2022-08-14T05:55:09.552Z,95.50
2022-08-14T05:57:54.783Z,95.50
2022-08-14T06:00:36.847Z,95.90
2022-08-14T06:03:11.599Z,95.70
2022-08-14T06:05:39.270Z,95.80
2022-08-14T06:08:21.755Z,96.00
2022-08-14T06:11:07.076Z,96.40
2022-08-14T06:13:41.124Z,96.20
2022-08-14T06:16:18.360Z,96.40
2022-08-14T06:18:52.966Z,96.50
2022-08-14T06:21:24.295Z,96.70
2022-08-14T06:23:53.644Z,97.00
2022-08-14T06:26:22.329Z,97.50
2022-08-14T06:28:52.328Z,98.10
2022-08-14T06:31:22.708Z,98.30
2022-08-14T06:35:09.738Z,98.80
2022-08-14T06:36:39.336Z,99.10
2022-08-14T06:39:10.516Z,99.60
2022-08-14T06:41:58.163Z,99.70
2022-08-14T06:44:32.197Z,99.90
2022-08-14T06:47:02.594Z,99.90
2022-08-14T06:49:30.890Z,99.90
2022-08-14T06:52:08.181Z,99.90
2022-08-14T06:54:36.220Z,99.90
2022-08-14T06:57:04.443Z,99.90
2022-08-14T06:59:32.012Z,99.90
2022-08-14T07:02:20.045Z,99.90
2022-08-14T07:05:06.280Z,99.90
2022-08-14T07:07:39.226Z,99.90
2022-08-14T07:10:13.290Z,99.90
2022-08-14T07:12:56.677Z,99.90
2022-08-14T07:15:32.522Z,99.90
2022-08-14T07:18:03.573Z,99.90
2022-08-14T07:20:32.777Z,99.90
2022-08-14T07:23:07.944Z,99.90
2022-08-14T07:25:38.214Z,99.90
2022-08-14T07:28:20.333Z,99.90
2022-08-14T07:30:51.249Z,99.90
2022-08-14T07:33:29.294Z,99.90
2022-08-14T07:36:01.458Z,99.90
2022-08-14T07:38:35.885Z,99.90
2022-08-14T07:41:11.729Z,99.90
2022-08-14T07:43:43.970Z,99.90
2022-08-14T07:46:21.311Z,99.90
2022-08-14T07:48:56.988Z,99.90
2022-08-14T07:51:26.068Z,99.90
2022-08-14T07:54:03.476Z,99.90
2022-08-14T07:56:47.695Z,99.90
2022-08-14T07:59:18.644Z,99.90
2022-08-14T08:01:48.282Z,99.90
2022-08-14T08:04:29.218Z,99.90
2022-08-14T08:07:03.438Z,99.90
2022-08-14T08:09:36.098Z,99.90
2022-08-14T08:12:09.461Z,99.90
2022-08-14T08:14:56.948Z,99.90
2022-08-14T08:17:34.852Z,99.90
2022-08-14T08:20:11.748Z,99.60
2022-08-14T08:22:43.518Z,99.00
2022-08-14T08:25:18.004Z,99.00
2022-08-14T08:27:57.638Z,98.70
2022-08-14T08:30:25.714Z,99.00
2022-08-14T08:32:57.101Z,97.40
2022-08-14T08:35:46.484Z,96.80
2022-08-14T08:39:17.839Z,96.00
2022-08-14T08:41:12.889Z,95.60
2022-08-14T08:43:46.339Z,95.40
2022-08-14T08:46:23.929Z,95.00
2022-08-14T08:51:31.193Z,94.10
2022-08-14T08:54:18.134Z,93.80
2022-08-14T08:56:52.089Z,93.00
2022-08-14T08:59:31.291Z,93.50
2022-08-14T09:02:10.793Z,92.30
2022-08-14T09:04:45.760Z,92.80
2022-08-14T09:07:28.180Z,92.60
2022-08-14T09:09:59.512Z,92.40
2022-08-14T09:12:32.016Z,92.20
2022-08-14T09:15:02.220Z,92.10
2022-08-14T09:17:32.548Z,91.70
2022-08-14T09:20:04.103Z,92.70
2022-08-14T09:22:36.418Z,87.90
2022-08-14T09:25:19.645Z,84.90
2022-08-14T09:27:50.040Z,85.80
2022-08-14T09:30:32.156Z,84.30
2022-08-14T09:33:11.667Z,83.80
2022-08-14T09:35:58.352Z,83.00
2022-08-14T09:39:34.481Z,81.00
2022-08-14T09:42:33.219Z,76.80
2022-08-14T09:45:14.204Z,77.00
2022-08-14T09:47:51.867Z,76.60
2022-08-14T09:50:25.749Z,74.70
2022-08-14T09:53:06.405Z,77.70
2022-08-14T09:55:45.929Z,72.20
2022-08-14T09:58:19.145Z,74.20
2022-08-14T10:00:48.971Z,73.00
2022-08-14T10:03:33.881Z,71.40
2022-08-14T10:06:25.133Z,68.40
2022-08-14T10:09:11.926Z,70.90
2022-08-14T10:11:58.929Z,71.30
2022-08-14T10:14:35.863Z,69.20
2022-08-14T10:17:07.102Z,71.10
2022-08-14T10:19:48.400Z,71.30
2022-08-14T10:23:13.281Z,72.40
2022-08-14T10:25:15.539Z,73.40
2022-08-14T10:27:47.114Z,72.40
2022-08-14T10:30:22.573Z,72.10
2022-08-14T10:32:52.216Z,72.90
2022-08-14T10:35:22.500Z,72.70
2022-08-14T10:37:53.423Z,73.20
2022-08-14T10:40:38.629Z,72.30
2022-08-14T10:43:23.061Z,68.00
2022-08-14T10:46:22.092Z,68.80
2022-08-14T10:48:58.124Z,68.00
2022-08-14T10:51:42.669Z,65.60
2022-08-14T10:54:26.107Z,66.30
2022-08-14T10:57:21.855Z,67.90
2022-08-14T10:59:56.436Z,61.90
2022-08-14T11:02:45.301Z,63.10
2022-08-14T11:05:25.105Z,62.30
2022-08-14T11:08:02.887Z,66.20
2022-08-14T11:10:55.787Z,58.80
2022-08-14T11:13:30.096Z,57.70
2022-08-14T11:16:01.778Z,58.90
2022-08-14T11:18:36.272Z,57.00
2022-08-14T11:21:09.702Z,60.60
2022-08-14T11:23:41.375Z,56.80
2022-08-14T11:26:18.990Z,56.90
2022-08-14T11:28:49.788Z,55.70
2022-08-14T11:31:25.594Z,55.10
2022-08-14T11:33:58.198Z,55.50
2022-08-14T11:37:09.436Z,55.60
2022-08-14T11:39:34.910Z,56.10
2022-08-14T11:42:57.730Z,60.90
2022-08-14T11:45:11.509Z,54.90
2022-08-14T11:48:13.686Z,54.70
2022-08-14T11:50:37.917Z,52.90
2022-08-14T11:53:25.821Z,52.20
2022-08-14T11:56:02.278Z,48.70
2022-08-14T11:58:37.648Z,49.80
2022-08-14T12:01:08.427Z,49.10
2022-08-14T12:03:52.205Z,50.10
2022-08-14T12:06:29.289Z,48.90
2022-08-14T12:09:08.604Z,49.20
2022-08-14T12:11:47.470Z,49.40
2022-08-14T12:14:30.825Z,49.30
2022-08-14T12:17:13.192Z,48.70
2022-08-14T12:19:57.032Z,48.80
2022-08-14T12:22:42.177Z,46.50
2022-08-14T12:25:24.772Z,45.90
2022-08-14T12:28:01.215Z,47.00
2022-08-14T12:30:39.469Z,47.50
2022-08-14T12:33:30.456Z,47.60
2022-08-14T12:36:05.515Z,46.80
2022-08-14T12:38:44.353Z,46.90
2022-08-14T12:41:20.728Z,47.00
2022-08-14T12:43:56.783Z,47.10
2022-08-14T12:46:43.717Z,47.70
2022-08-14T12:49:16.433Z,46.80
2022-08-14T12:51:55.441Z,46.50
2022-08-14T12:54:28.166Z,47.30
2022-08-14T12:57:19.298Z,47.70
2022-08-14T12:59:49.210Z,45.80
2022-08-14T13:02:27.198Z,46.80
2022-08-14T13:04:56.704Z,44.60
2022-08-14T13:07:32.618Z,46.60
2022-08-14T13:10:45.895Z,46.90
2022-08-14T13:13:12.565Z,46.20
2022-08-14T13:15:40.506Z,46.00
2022-08-14T13:18:10.602Z,46.50
2022-08-14T13:20:51.860Z,46.00
2022-08-14T13:23:30.649Z,45.50
2022-08-14T13:26:01.512Z,44.90
2022-08-14T13:28:41.224Z,45.10
2022-08-14T13:31:30.466Z,46.90
2022-08-14T13:34:00.229Z,46.20
2022-08-14T13:36:59.404Z,46.20
2022-08-14T13:40:04.104Z,44.80
2022-08-14T13:42:32.171Z,48.80
2022-08-14T13:45:10.251Z,48.50
2022-08-14T13:47:55.442Z,45.40
2022-08-14T13:50:40.629Z,49.60
2022-08-14T13:56:52.525Z,40.80
2022-08-14T13:59:37.389Z,45.60
2022-08-14T14:02:08.933Z,43.00
2022-08-14T14:04:46.397Z,47.50
2022-08-14T14:07:21.829Z,43.10
2022-08-14T14:09:58.195Z,42.90
2022-08-14T14:12:37.814Z,43.70
2022-08-14T14:15:16.860Z,46.20
2022-08-14T14:17:48.418Z,40.90
2022-08-14T14:20:35.108Z,41.80
2022-08-14T14:23:11.873Z,40.30
2022-08-14T14:25:48.467Z,41.90
2022-08-14T14:28:24.650Z,41.40
2022-08-14T14:30:57.197Z,41.30
2022-08-14T14:33:49.498Z,42.10
2022-08-14T14:36:29.424Z,40.50
2022-08-14T14:39:00.677Z,40.40
2022-08-14T14:41:37.561Z,41.50
2022-08-14T14:44:09.228Z,40.50
2022-08-14T14:46:41.665Z,41.30
2022-08-14T14:49:14.425Z,42.30
2022-08-14T14:51:51.137Z,41.60
2022-08-14T14:54:31.173Z,42.10
2022-08-14T14:57:09.182Z,41.80
2022-08-14T14:59:37.536Z,42.40
2022-08-14T15:02:08.117Z,43.00
2022-08-14T15:04:43.723Z,41.80
2022-08-14T15:07:16.775Z,43.20
2022-08-14T15:09:44.406Z,44.70
2022-08-14T15:12:34.791Z,43.50
2022-08-14T15:15:08.478Z,41.70
2022-08-14T15:17:41.746Z,41.10
2022-08-14T15:20:30.623Z,40.90
2022-08-14T15:23:12.204Z,42.00
2022-08-14T15:25:41.771Z,40.50
2022-08-14T15:28:13.047Z,40.30
2022-08-14T15:30:51.180Z,41.00
2022-08-14T15:34:13.166Z,41.10
2022-08-14T15:36:35.237Z,40.80
2022-08-14T15:39:04.089Z,41.50
2022-08-14T15:41:33.661Z,41.70
2022-08-14T15:44:25.284Z,42.40
2022-08-14T15:46:55.705Z,41.80
2022-08-14T15:49:33.224Z,41.90
2022-08-14T15:52:04.601Z,42.90
2022-08-14T15:54:41.649Z,43.00
2022-08-14T15:57:11.491Z,46.00
2022-08-14T15:59:58.427Z,46.00
2022-08-14T16:02:27.961Z,44.70
2022-08-14T16:04:56.470Z,45.00
2022-08-14T16:07:27.663Z,45.20
2022-08-14T16:10:25.341Z,45.60
2022-08-14T16:12:47.745Z,46.50
2022-08-14T16:15:16.725Z,46.40
2022-08-14T16:17:47.666Z,46.70
2022-08-14T16:20:41.410Z,47.40
2022-08-14T16:23:11.522Z,47.40
2022-08-14T16:25:42.419Z,47.60
2022-08-14T16:28:13.385Z,47.70
2022-08-14T16:30:56.113Z,47.80
2022-08-14T16:33:56.621Z,47.80
2022-08-14T16:36:31.280Z,52.40
2022-08-14T16:39:01.939Z,47.80
2022-08-14T16:41:29.883Z,48.00
2022-08-14T16:44:01.161Z,48.20
2022-08-14T16:46:34.918Z,48.50
2022-08-14T16:49:05.712Z,48.30
2022-08-14T16:51:36.372Z,48.10
2022-08-14T16:54:33.688Z,48.30
2022-08-14T16:57:16.226Z,49.00
2022-08-14T16:59:52.698Z,48.70
2022-08-14T17:02:42.544Z,48.90
2022-08-14T17:05:16.749Z,49.20
2022-08-14T17:08:32.426Z,50.70
2022-08-14T17:10:57.125Z,48.90
2022-08-14T17:13:58.267Z,49.70
2022-08-14T17:16:24.727Z,48.70
2022-08-14T17:19:00.519Z,49.30
2022-08-14T17:21:38.467Z,49.60
2022-08-14T17:24:56.044Z,49.50
2022-08-14T17:27:04.166Z,50.10
2022-08-14T17:29:44.856Z,50.10
2022-08-14T17:32:57.580Z,49.00
2022-08-14T17:35:26.609Z,49.80
2022-08-14T17:38:39.056Z,49.80
2022-08-14T17:41:27.016Z,50.40
2022-08-14T17:44:19.919Z,49.40
2022-08-14T17:47:02.287Z,50.40
2022-08-14T17:49:32.911Z,49.20
2022-08-14T17:52:17.479Z,51.70
2022-08-14T17:55:01.499Z,53.00
2022-08-14T17:57:40.856Z,52.70
2022-08-14T18:00:15.087Z,52.80
2022-08-14T18:02:50.414Z,53.20
2022-08-14T18:05:23.668Z,53.30
2022-08-14T18:08:32.812Z,54.20
2022-08-14T18:10:57.195Z,54.80
2022-08-14T18:13:51.205Z,58.00
2022-08-14T18:16:20.617Z,53.20
2022-08-14T18:18:51.893Z,54.60
2022-08-14T18:21:24.306Z,53.20
2022-08-14T18:24:28.312Z,51.90
2022-08-14T18:27:09.176Z,54.50
2022-08-14T18:29:54.944Z,51.80
2022-08-14T18:32:32.686Z,53.50
2022-08-14T18:35:02.197Z,55.40
2022-08-14T18:37:55.781Z,55.90
2022-08-14T18:48:33.219Z,53.60
2022-08-14T18:51:17.802Z,56.30
2022-08-14T18:54:04.369Z,60.90
2022-08-14T18:57:00.200Z,58.80
2022-08-14T18:59:40.316Z,58.50
2022-08-14T19:02:44.409Z,59.80
2022-08-14T19:05:14.417Z,62.00
2022-08-14T19:07:48.627Z,60.00
2022-08-14T19:10:31.858Z,60.80
2022-08-14T19:13:12.022Z,61.20
2022-08-14T19:15:44.263Z,60.60
2022-08-14T19:18:28.211Z,60.50
2022-08-14T19:21:13.490Z,62.40
2022-08-14T19:23:44.378Z,63.20
2022-08-14T19:26:35.973Z,63.10
2022-08-14T19:29:23.871Z,63.50
2022-08-14T19:31:55.947Z,65.80
2022-08-14T19:34:48.100Z,67.10
2022-08-14T19:37:43.707Z,67.70
2022-08-14T19:40:19.529Z,65.60
2022-08-14T19:42:49.026Z,69.40
2022-08-14T19:45:16.829Z,67.00
2022-08-14T19:47:50.036Z,70.50
2022-08-14T19:50:38.829Z,70.40
2022-08-14T19:53:16.629Z,68.00
2022-08-14T19:56:02.029Z,68.80
2022-08-14T19:58:54.823Z,68.60
2022-08-14T20:01:37.142Z,70.80
2022-08-14T20:04:46.471Z,69.90
2022-08-14T20:07:04.258Z,70.40
2022-08-14T20:11:12.380Z,72.50
2022-08-14T20:12:57.204Z,72.90
2022-08-14T20:15:47.395Z,72.60
2022-08-14T20:18:48.715Z,72.50
2022-08-14T20:21:14.892Z,72.40
2022-08-14T20:23:47.918Z,74.20
2022-08-14T20:26:31.930Z,74.40
2022-08-14T20:29:14.234Z,73.70
2022-08-14T20:31:42.990Z,77.70
2022-08-14T20:34:24.693Z,73.20
2022-08-14T20:37:21.714Z,77.70
2022-08-14T20:39:54.572Z,75.00
2022-08-14T20:42:49.346Z,73.00
2022-08-14T20:45:24.848Z,75.60
2022-08-14T20:48:00.821Z,76.00
2022-08-14T20:50:33.754Z,74.80
2022-08-14T20:53:24.288Z,79.60
2022-08-14T20:55:53.465Z,75.90
2022-08-14T20:58:44.343Z,76.20
2022-08-14T21:01:21.152Z,75.90
2022-08-14T21:04:28.933Z,75.20
2022-08-14T21:07:24.942Z,74.00
2022-08-14T21:10:36.336Z,76.30
2022-08-14T21:14:08.815Z,78.30
2022-08-14T21:16:03.804Z,77.20
2022-08-14T21:18:47.331Z,75.80
2022-08-14T21:21:25.099Z,74.10
2022-08-14T21:24:10.045Z,73.20
2022-08-14T21:27:13.147Z,71.90
2022-08-14T21:29:53.717Z,72.00
2022-08-14T21:32:47.271Z,73.40
2022-08-14T21:35:24.519Z,71.10
2022-08-14T21:37:53.782Z,72.90
2022-08-14T21:40:40.719Z,71.90
2022-08-14T21:43:18.069Z,69.50
2022-08-14T21:45:53.300Z,69.20
2022-08-14T21:48:30.425Z,69.90
2022-08-14T21:51:54.173Z,70.10
2022-08-14T21:53:59.359Z,70.60
2022-08-14T21:56:39.552Z,71.20
2022-08-14T21:59:22.514Z,70.30
2022-08-14T22:02:01.780Z,70.70
2022-08-14T22:04:40.367Z,70.00
2022-08-14T22:07:17.422Z,70.10
2022-08-14T22:09:55.050Z,70.30
2022-08-14T22:12:57.371Z,70.30
2022-08-14T22:15:15.829Z,70.80
2022-08-14T22:17:44.584Z,70.70
2022-08-14T22:20:16.494Z,72.20
2022-08-14T22:22:44.703Z,71.30
2022-08-14T22:25:17.221Z,71.60
2022-08-14T22:27:55.946Z,72.00
2022-08-14T22:30:25.182Z,71.70
2022-08-14T22:32:56.613Z,72.60
2022-08-14T22:35:26.541Z,72.50
2022-08-14T22:38:34.610Z,73.80
2022-08-14T22:41:04.469Z,72.60
2022-08-14T22:43:35.087Z,72.50
2022-08-14T22:46:14.477Z,73.30
2022-08-14T22:48:45.237Z,72.80
2022-08-14T22:51:18.717Z,73.50
2022-08-14T22:53:52.274Z,73.30
2022-08-14T22:56:30.790Z,74.10
2022-08-14T22:59:09.517Z,74.00
2022-08-14T23:01:57.202Z,74.80
2022-08-14T23:04:35.290Z,74.40
2022-08-14T23:07:22.840Z,75.80
2022-08-14T23:10:34.087Z,75.70
2022-08-14T23:12:54.376Z,75.30
2022-08-14T23:15:24.242Z,75.70
2022-08-14T23:17:59.061Z,76.30
2022-08-14T23:20:29.298Z,78.70
2022-08-14T23:22:58.311Z,75.10
2022-08-14T23:25:57.141Z,77.50
2022-08-14T23:28:34.445Z,75.60
2022-08-14T23:31:12.937Z,76.10
2022-08-14T23:33:46.265Z,75.80
2022-08-14T23:36:32.246Z,76.10
2022-08-14T23:39:10.177Z,78.60
2022-08-14T23:41:45.899Z,78.00
2022-08-14T23:44:24.324Z,77.60
2022-08-14T23:46:57.039Z,76.70
2022-08-14T23:49:56.742Z,77.80
2022-08-14T23:53:07.311Z,79.00
2022-08-14T23:55:11.361Z,79.00
2022-08-14T23:57:59.175Z,79.30
